createdAt,value
2018-07-26T00:00:59.216Z,25.40
2018-07-26T00:06:53.500Z,25.40
2018-07-26T00:09:35.095Z,25.40
2018-07-26T00:12:16.695Z,25.40
2018-07-26T00:14:58.248Z,25.40
2018-07-26T00:17:48.212Z,25.40
2018-07-26T00:20:33.465Z,25.40
2018-07-26T00:23:19.049Z,25.30
2018-07-26T00:26:04.536Z,25.30
2018-07-26T00:28:46.405Z,25.30
2018-07-26T00:31:27.262Z,25.20
2018-07-26T00:34:15.810Z,25.10
2018-07-26T00:36:56.790Z,25.10
2018-07-26T00:39:39.116Z,25.10
2018-07-26T00:42:29.349Z,25.00
2018-07-26T00:45:14.681Z,25.00
2018-07-26T00:47:57.778Z,25.10
2018-07-26T00:50:39.375Z,25.10
2018-07-26T00:53:31.186Z,25.10
2018-07-26T00:56:18.314Z,25.10
2018-07-26T01:02:05.357Z,25.00
2018-07-26T01:04:50.448Z,25.10
2018-07-26T01:07:32.373Z,25.10
2018-07-26T01:10:13.312Z,25.10
2018-07-26T01:12:54.698Z,25.10
2018-07-26T01:15:42.985Z,25.00
2018-07-26T01:18:24.182Z,25.00
2018-07-26T01:21:05.847Z,25.00
2018-07-26T01:23:47.122Z,25.00
2018-07-26T01:26:28.281Z,25.00
2018-07-26T01:29:09.442Z,25.00
2018-07-26T01:31:53.290Z,25.00
2018-07-26T01:34:34.146Z,25.00
2018-07-26T01:37:15.764Z,25.00
2018-07-26T01:39:57.294Z,25.00
2018-07-26T01:42:38.857Z,25.00
2018-07-26T01:45:32.298Z,25.00
2018-07-26T01:48:13.908Z,25.10
2018-07-26T01:50:55.158Z,25.10
2018-07-26T01:53:36.847Z,25.10
2018-07-26T01:56:26.308Z,25.10
2018-07-26T01:59:08.027Z,25.10
2018-07-26T02:01:49.465Z,25.10
2018-07-26T02:04:30.306Z,25.10
2018-07-26T02:07:11.103Z,25.10
2018-07-26T02:09:54.867Z,25.20
2018-07-26T02:12:36.526Z,25.20
2018-07-26T02:15:17.791Z,25.20
2018-07-26T02:17:58.869Z,25.20
2018-07-26T02:20:40.496Z,25.20
2018-07-26T02:26:04.762Z,25.30
2018-07-26T02:28:45.516Z,25.30
2018-07-26T02:31:27.364Z,25.40
2018-07-26T02:34:08.847Z,25.40
2018-07-26T02:36:49.527Z,25.40
2018-07-26T02:39:31.236Z,25.40
2018-07-26T02:42:12.896Z,25.40
2018-07-26T02:44:54.616Z,25.40
2018-07-26T02:47:36.288Z,25.50
2018-07-26T02:50:17.924Z,25.50
2018-07-26T02:52:58.946Z,25.50
2018-07-26T02:55:40.700Z,25.50
2018-07-26T02:58:22.245Z,25.50
2018-07-26T03:01:05.291Z,25.50
2018-07-26T03:03:47.360Z,25.50
2018-07-26T03:06:28.658Z,25.50
2018-07-26T03:09:10.385Z,25.50
2018-07-26T03:11:51.720Z,25.50
2018-07-26T03:14:36.890Z,25.50
2018-07-26T03:17:23.949Z,25.50
2018-07-26T03:20:04.944Z,25.50
2018-07-26T03:22:54.247Z,25.50
2018-07-26T03:25:35.145Z,25.50
2018-07-26T03:28:16.918Z,25.40
2018-07-26T03:30:57.539Z,25.30
2018-07-26T03:33:38.167Z,25.30
2018-07-26T03:36:19.658Z,25.20
2018-07-26T03:39:00.543Z,25.10
2018-07-26T03:41:42.092Z,25.00
2018-07-26T03:44:25.008Z,25.00
2018-07-26T03:47:07.007Z,25.00
2018-07-26T03:49:49.141Z,25.00
2018-07-26T03:52:31.663Z,25.00
2018-07-26T03:55:14.042Z,25.00
2018-07-26T03:57:55.499Z,24.90
2018-07-26T04:00:37.249Z,24.90
2018-07-26T04:03:20.051Z,24.90
2018-07-26T04:06:11.368Z,24.80
2018-07-26T04:08:52.632Z,24.80
2018-07-26T04:11:34.005Z,24.80
2018-07-26T04:14:15.977Z,24.80
2018-07-26T04:16:57.210Z,24.80
2018-07-26T04:19:38.999Z,24.70
2018-07-26T04:22:26.334Z,24.70
2018-07-26T04:25:09.540Z,24.70
2018-07-26T04:27:50.388Z,24.60
2018-07-26T04:30:31.381Z,24.60
2018-07-26T04:39:03.984Z,24.50
2018-07-26T04:41:45.643Z,24.50
2018-07-26T04:44:27.225Z,24.40
2018-07-26T04:47:08.901Z,24.30
2018-07-26T04:49:50.324Z,24.30
2018-07-26T04:52:31.806Z,24.30
2018-07-26T04:55:14.373Z,24.30
2018-07-26T04:57:55.785Z,24.20
2018-07-26T05:00:37.378Z,24.30
2018-07-26T05:06:01.016Z,24.30
2018-07-26T05:08:42.296Z,24.20
2018-07-26T05:11:23.202Z,24.20
2018-07-26T05:14:04.808Z,24.20
2018-07-26T05:16:45.561Z,24.20
2018-07-26T05:19:27.111Z,24.10
2018-07-26T05:22:08.791Z,24.20
2018-07-26T05:24:50.182Z,24.10
2018-07-26T05:27:32.380Z,24.20
2018-07-26T05:30:13.579Z,24.20
2018-07-26T05:32:54.625Z,24.20
2018-07-26T05:35:36.030Z,24.30
2018-07-26T05:38:16.688Z,24.30
2018-07-26T05:40:58.344Z,24.30
2018-07-26T05:43:39.439Z,24.30
2018-07-26T05:46:20.724Z,24.30
2018-07-26T05:49:02.372Z,24.40
2018-07-26T05:51:44.055Z,24.50
2018-07-26T05:54:25.670Z,24.60
2018-07-26T05:57:07.212Z,24.70
2018-07-26T05:59:47.990Z,24.80
2018-07-26T06:02:29.622Z,24.80
2018-07-26T06:05:11.455Z,24.90
2018-07-26T06:10:34.591Z,25.00
2018-07-26T06:13:16.636Z,25.10
2018-07-26T06:15:58.189Z,25.20
2018-07-26T06:18:39.890Z,25.30
2018-07-26T06:21:21.590Z,25.30
2018-07-26T06:24:03.114Z,25.40
2018-07-26T06:26:44.070Z,25.50
2018-07-26T06:29:25.014Z,25.70
2018-07-26T06:32:06.645Z,25.70
2018-07-26T06:34:48.091Z,25.80
2018-07-26T06:41:03.036Z,26.00
2018-07-26T06:48:45.041Z,26.00
2018-07-26T06:51:28.955Z,26.00
2018-07-26T06:54:09.753Z,26.20
2018-07-26T06:56:50.455Z,26.30
2018-07-26T06:59:32.294Z,26.30
2018-07-26T07:02:15.285Z,26.40
2018-07-26T07:04:56.878Z,26.40
2018-07-26T07:07:38.681Z,26.40
2018-07-26T07:10:19.907Z,26.50
2018-07-26T07:13:01.967Z,26.60
2018-07-26T07:15:43.102Z,26.60
2018-07-26T07:18:25.065Z,26.70
2018-07-26T07:21:06.517Z,26.70
2018-07-26T07:23:48.597Z,26.80
2018-07-26T07:29:11.530Z,27.00
2018-07-26T07:31:53.069Z,27.10
2018-07-26T07:34:34.738Z,27.10
2018-07-26T07:37:15.661Z,27.10
2018-07-26T07:39:57.307Z,27.20
2018-07-26T07:42:39.368Z,27.20
2018-07-26T07:45:20.344Z,27.20
2018-07-26T07:48:02.852Z,27.30
2018-07-26T07:50:43.573Z,27.20
2018-07-26T07:53:25.136Z,27.20
2018-07-26T07:58:48.501Z,27.40
2018-07-26T08:01:29.206Z,27.40
2018-07-26T08:04:11.241Z,27.30
2018-07-26T08:06:52.961Z,27.40
2018-07-26T08:09:34.474Z,27.40
2018-07-26T08:12:16.072Z,27.50
2018-07-26T08:14:58.075Z,27.50
2018-07-26T08:17:40.508Z,27.60
2018-07-26T08:20:22.147Z,27.50
2018-07-26T08:23:03.611Z,27.50
2018-07-26T08:25:45.080Z,27.60
2018-07-26T08:28:27.123Z,27.60
2018-07-26T08:31:08.238Z,27.70
2018-07-26T08:33:49.185Z,27.70
2018-07-26T08:36:30.794Z,27.70
2018-07-26T08:39:13.007Z,27.70
2018-07-26T08:41:54.061Z,27.80
2018-07-26T08:44:34.726Z,27.90
2018-07-26T08:47:15.455Z,27.80
2018-07-26T08:49:56.301Z,27.80
2018-07-26T08:52:37.848Z,27.80
2018-07-26T08:55:19.327Z,28.00
2018-07-26T08:58:01.520Z,28.20
2018-07-26T09:00:42.659Z,28.40
2018-07-26T09:03:24.325Z,28.50
2018-07-26T09:06:05.166Z,28.60
2018-07-26T09:08:46.601Z,28.70
2018-07-26T09:11:28.066Z,28.90
2018-07-26T09:14:10.571Z,29.10
2018-07-26T09:16:52.279Z,29.30
2018-07-26T09:19:33.961Z,29.50
2018-07-26T09:22:15.516Z,29.70
2018-07-26T09:24:56.142Z,29.90
2018-07-26T09:27:36.908Z,30.20
2018-07-26T09:30:17.687Z,30.40
2018-07-26T09:32:59.563Z,30.50
2018-07-26T09:35:41.192Z,30.60
2018-07-26T09:38:22.728Z,30.60
2018-07-26T09:41:03.482Z,30.70
2018-07-26T09:43:45.023Z,30.70
2018-07-26T09:46:26.056Z,30.60
2018-07-26T09:49:08.091Z,30.50
2018-07-26T09:54:30.758Z,30.50
2018-07-26T09:57:11.437Z,30.50
2018-07-26T09:59:52.261Z,30.10
2018-07-26T10:02:33.855Z,30.10
2018-07-26T10:05:15.576Z,30.20
2018-07-26T10:07:57.221Z,30.40
2018-07-26T10:10:39.387Z,30.60
2018-07-26T10:13:20.523Z,30.70
2018-07-26T10:16:02.072Z,30.80
2018-07-26T10:18:42.712Z,30.70
2018-07-26T10:21:23.405Z,30.80
2018-07-26T10:24:05.116Z,30.60
2018-07-26T10:26:46.716Z,30.60
2018-07-26T10:29:28.673Z,30.60
2018-07-26T10:32:10.029Z,30.70
2018-07-26T10:34:51.953Z,30.40
2018-07-26T10:37:33.512Z,30.60
2018-07-26T10:40:15.204Z,30.70
2018-07-26T10:42:56.482Z,30.70
2018-07-26T10:45:37.136Z,30.70
2018-07-26T10:48:17.959Z,30.80
2018-07-26T10:50:59.683Z,30.90
2018-07-26T10:53:41.317Z,31.00
2018-07-26T10:56:23.232Z,31.10
2018-07-26T10:59:04.576Z,31.20
2018-07-26T11:01:46.152Z,31.20
2018-07-26T11:04:26.804Z,31.20
2018-07-26T11:07:08.571Z,31.30
2018-07-26T11:09:50.308Z,31.40
2018-07-26T11:12:31.928Z,31.40
2018-07-26T11:15:12.997Z,31.30
2018-07-26T11:17:54.618Z,31.50
2018-07-26T11:20:35.401Z,31.50
2018-07-26T11:23:16.820Z,31.50
2018-07-26T11:25:57.553Z,31.30
2018-07-26T11:28:39.168Z,31.00
2018-07-26T11:31:20.781Z,30.80
2018-07-26T11:34:02.248Z,30.80
2018-07-26T11:36:42.990Z,30.70
2018-07-26T11:39:24.612Z,30.60
2018-07-26T11:42:06.376Z,30.70
2018-07-26T11:44:48.172Z,31.00
2018-07-26T11:47:30.055Z,31.10
2018-07-26T11:50:12.006Z,31.00
2018-07-26T11:52:53.096Z,31.00
2018-07-26T11:55:34.663Z,30.90
2018-07-26T11:58:16.171Z,30.90
2018-07-26T12:00:57.656Z,31.10
2018-07-26T12:03:39.288Z,31.10
2018-07-26T12:06:20.814Z,31.30
2018-07-26T12:09:02.805Z,31.40
2018-07-26T12:11:43.978Z,31.50
2018-07-26T12:14:25.567Z,31.40
2018-07-26T12:17:06.804Z,31.50
2018-07-26T12:19:48.043Z,31.50
2018-07-26T12:22:29.670Z,31.40
2018-07-26T12:25:11.344Z,31.20
2018-07-26T12:27:52.853Z,31.10
2018-07-26T12:30:33.849Z,31.20
2018-07-26T12:33:15.734Z,31.10
2018-07-26T12:35:56.731Z,31.00
2018-07-26T12:38:37.792Z,30.90
2018-07-26T12:41:18.962Z,30.90
2018-07-26T12:44:00.520Z,30.70
2018-07-26T12:46:41.504Z,30.70
2018-07-26T12:49:22.944Z,30.70
2018-07-26T12:52:04.560Z,30.60
2018-07-26T12:54:45.331Z,30.60
2018-07-26T12:57:27.411Z,30.60
2018-07-26T13:00:08.869Z,30.90
2018-07-26T13:02:50.247Z,31.00
2018-07-26T13:05:31.868Z,31.10
2018-07-26T13:08:12.582Z,31.20
2018-07-26T13:10:53.872Z,31.40
2018-07-26T13:13:35.163Z,31.50
2018-07-26T13:16:16.933Z,31.60
2018-07-26T13:18:58.388Z,31.70
2018-07-26T13:21:39.187Z,31.80
2018-07-26T13:24:20.761Z,31.90
2018-07-26T13:27:02.348Z,31.70
2018-07-26T13:39:07.069Z,32.20
2018-07-26T13:41:48.628Z,32.20
2018-07-26T13:44:30.199Z,32.30
2018-07-26T13:47:11.825Z,32.30
2018-07-26T13:49:53.498Z,32.10
2018-07-26T13:52:34.343Z,31.80
2018-07-26T13:55:15.973Z,31.80
2018-07-26T13:57:57.687Z,31.50
2018-07-26T14:00:38.446Z,31.40
2018-07-26T14:03:20.038Z,31.50
2018-07-26T14:06:02.332Z,31.70
2018-07-26T14:08:43.352Z,31.90
2018-07-26T14:11:25.008Z,32.00
2018-07-26T14:14:06.631Z,31.90
2018-07-26T14:16:48.366Z,31.90
2018-07-26T14:19:29.135Z,31.90
2018-07-26T14:22:10.789Z,31.90
2018-07-26T14:24:53.258Z,31.50
2018-07-26T14:27:33.921Z,31.40
2018-07-26T14:30:14.653Z,31.50
2018-07-26T14:32:55.305Z,31.70
2018-07-26T14:35:37.150Z,31.80
2018-07-26T14:38:18.526Z,32.00
2018-07-26T14:41:00.452Z,31.90
2018-07-26T14:43:42.639Z,31.70
2018-07-26T14:46:24.155Z,31.60
2018-07-26T14:49:05.304Z,31.30
2018-07-26T14:51:47.183Z,31.10
2018-07-26T15:22:44.929Z,31.10
2018-07-26T15:25:27.442Z,30.80
2018-07-26T15:28:08.274Z,31.00
2018-07-26T15:30:49.813Z,31.00
2018-07-26T15:33:31.440Z,30.80
2018-07-26T15:36:13.246Z,30.90
2018-07-26T15:38:54.915Z,30.60
2018-07-26T15:41:36.745Z,30.50
2018-07-26T15:44:41.627Z,30.10
2018-07-26T15:47:23.045Z,30.40
2018-07-26T15:50:04.605Z,30.60
2018-07-26T15:52:46.233Z,30.40
2018-07-26T15:55:27.963Z,30.50
2018-07-26T15:58:09.632Z,30.60
2018-07-26T16:00:51.229Z,30.50
2018-07-26T16:03:32.936Z,30.50
2018-07-26T16:06:14.326Z,30.30
2018-07-26T16:08:56.014Z,30.00
2018-07-26T16:11:37.693Z,29.90
2018-07-26T16:14:19.442Z,29.50
2018-07-26T16:17:01.122Z,29.60
2018-07-26T16:19:42.781Z,29.60
2018-07-26T16:25:05.317Z,29.60
2018-07-26T16:27:46.745Z,29.60
2018-07-26T16:30:28.362Z,29.30
2018-07-26T16:33:10.131Z,29.30
2018-07-26T16:35:51.827Z,29.30
2018-07-26T16:38:33.426Z,29.40
2018-07-26T16:41:15.236Z,29.40
2018-07-26T16:43:57.515Z,29.40
2018-07-26T16:46:38.628Z,29.30
2018-07-26T16:49:19.343Z,29.20
2018-07-26T16:52:01.331Z,29.20
2018-07-26T16:54:42.601Z,29.20
2018-07-26T16:57:25.416Z,29.10
2018-07-26T17:00:07.189Z,29.10
2018-07-26T17:02:49.122Z,29.00
2018-07-26T17:05:30.849Z,28.90
2018-07-26T17:08:13.529Z,28.90
2018-07-26T17:10:54.398Z,28.90
2018-07-26T17:13:36.190Z,28.80
2018-07-26T17:16:17.912Z,28.70
2018-07-26T17:18:59.636Z,28.70
2018-07-26T17:21:41.124Z,28.60
2018-07-26T17:24:21.918Z,28.50
2018-07-26T17:27:04.705Z,28.30
2018-07-26T17:29:46.402Z,28.20
2018-07-26T17:32:28.170Z,28.20
2018-07-26T17:35:09.774Z,28.10
2018-07-26T17:37:51.157Z,28.10
2018-07-26T17:40:32.086Z,27.90
2018-07-26T17:43:14.661Z,27.90
2018-07-26T17:45:55.395Z,27.80
2018-07-26T17:48:38.040Z,27.90
2018-07-26T17:51:20.353Z,27.80
2018-07-26T17:54:01.498Z,27.90
2018-07-26T17:56:43.187Z,27.90
2018-07-26T17:59:24.526Z,27.90
2018-07-26T18:02:06.313Z,27.90
2018-07-26T18:04:48.493Z,27.90
2018-07-26T18:07:29.775Z,27.90
2018-07-26T18:10:11.491Z,27.80
2018-07-26T18:12:53.322Z,27.80
2018-07-26T18:18:15.819Z,27.80
2018-07-26T18:20:57.859Z,27.70
2018-07-26T18:23:39.369Z,27.70
2018-07-26T18:26:21.171Z,27.70
2018-07-26T18:29:02.946Z,27.70
2018-07-26T18:31:44.657Z,27.70
2018-07-26T18:34:26.243Z,27.70
2018-07-26T18:37:07.877Z,27.70
2018-07-26T18:39:49.541Z,27.70
2018-07-26T18:42:31.700Z,27.80
2018-07-26T18:45:13.115Z,27.70
2018-07-26T18:47:54.664Z,27.80
2018-07-26T18:53:17.999Z,27.80
2018-07-26T18:55:58.850Z,27.80
2018-07-26T18:58:41.426Z,27.80
2018-07-26T19:01:23.150Z,27.80
2018-07-26T19:04:04.931Z,27.70
2018-07-26T19:06:46.515Z,27.60
2018-07-26T19:09:28.135Z,27.60
2018-07-26T19:12:09.081Z,27.60
2018-07-26T19:14:51.916Z,27.60
2018-07-26T19:17:33.638Z,27.50
2018-07-26T19:20:15.693Z,27.50
2018-07-26T19:22:57.010Z,27.40
2018-07-26T19:25:38.963Z,27.40
2018-07-26T19:28:20.689Z,27.30
2018-07-26T19:31:02.067Z,27.30
2018-07-26T19:33:43.760Z,27.20
2018-07-26T19:36:25.641Z,27.20
2018-07-26T19:39:07.123Z,27.20
2018-07-26T19:41:48.698Z,27.10
2018-07-26T19:44:30.467Z,27.10
2018-07-26T19:47:12.262Z,27.00
2018-07-26T19:49:54.492Z,27.00
2018-07-26T19:52:36.222Z,27.00
2018-07-26T19:55:18.729Z,27.00
2018-07-26T19:58:00.001Z,26.90
2018-07-26T20:00:42.050Z,26.90
2018-07-26T20:13:07.318Z,26.80
2018-07-26T20:15:49.084Z,26.70
2018-07-26T20:18:31.288Z,26.70
2018-07-26T20:21:12.389Z,26.70
2018-07-26T20:23:54.105Z,26.60
2018-07-26T20:26:35.692Z,26.60
2018-07-26T20:29:17.360Z,26.50
2018-07-26T20:31:59.291Z,26.50
2018-07-26T20:34:40.575Z,26.50
2018-07-26T20:37:22.090Z,26.50
2018-07-26T20:40:03.844Z,26.50
2018-07-26T20:42:44.667Z,26.50
2018-07-26T20:45:26.098Z,26.50
2018-07-26T20:48:07.884Z,26.50
2018-07-26T20:50:49.823Z,26.50
2018-07-26T20:56:39.239Z,26.50
2018-07-26T20:59:20.838Z,26.40
2018-07-26T21:02:10.579Z,26.40
2018-07-26T21:04:52.159Z,26.30
2018-07-26T21:07:34.519Z,26.30
2018-07-26T21:10:15.362Z,26.30
2018-07-26T21:12:57.045Z,26.30
2018-07-26T21:15:38.687Z,26.20
2018-07-26T21:18:19.560Z,26.20
2018-07-26T21:21:01.293Z,26.20
2018-07-26T21:23:43.433Z,26.20
2018-07-26T21:26:25.253Z,26.20
2018-07-26T21:29:06.482Z,26.10
2018-07-26T21:31:49.073Z,26.10
2018-07-26T21:34:30.912Z,26.10
2018-07-26T21:37:12.698Z,26.00
2018-07-26T21:39:54.444Z,26.00
2018-07-26T21:42:36.245Z,26.00
2018-07-26T21:45:17.647Z,26.00
2018-07-26T21:47:59.306Z,25.90
2018-07-26T21:50:40.754Z,25.90
2018-07-26T21:53:22.528Z,25.90
2018-07-26T21:56:04.019Z,25.90
2018-07-26T21:58:55.662Z,25.90
2018-07-26T22:01:46.016Z,25.90
2018-07-26T22:04:31.295Z,25.90
2018-07-26T22:07:15.233Z,25.90
2018-07-26T22:09:59.457Z,25.80
2018-07-26T22:12:43.720Z,25.80
2018-07-26T22:15:24.824Z,25.80
2018-07-26T22:18:08.283Z,25.80
2018-07-26T22:20:50.664Z,25.80
2018-07-26T22:23:33.931Z,25.80
2018-07-26T22:26:15.145Z,25.70
2018-07-26T22:28:56.268Z,25.70
2018-07-26T22:31:37.816Z,25.70
2018-07-26T22:34:21.054Z,25.70
2018-07-26T22:37:02.759Z,25.70
2018-07-26T22:39:44.258Z,25.70
2018-07-26T22:42:25.900Z,25.60
2018-07-26T22:45:09.487Z,25.60
2018-07-26T22:47:51.127Z,25.50
2018-07-26T22:50:33.172Z,25.50
2018-07-26T22:53:15.717Z,25.50
2018-07-26T22:55:58.399Z,25.50
2018-07-26T22:58:40.333Z,25.50
2018-07-26T23:01:22.523Z,25.50
2018-07-26T23:04:04.014Z,25.50
2018-07-26T23:06:44.695Z,25.50
2018-07-26T23:09:26.189Z,25.40
2018-07-26T23:12:08.483Z,25.50
2018-07-26T23:14:50.352Z,25.50
2018-07-26T23:17:31.047Z,25.40
2018-07-26T23:20:12.833Z,25.40
2018-07-26T23:22:55.366Z,25.40
2018-07-26T23:25:36.703Z,25.40
2018-07-26T23:28:18.540Z,25.40
2018-07-26T23:31:00.056Z,25.40
2018-07-26T23:33:41.491Z,25.30
2018-07-26T23:36:22.534Z,25.30
2018-07-26T23:39:05.659Z,25.30
2018-07-26T23:41:46.390Z,25.30
2018-07-26T23:44:27.135Z,25.30
2018-07-26T23:47:08.814Z,25.30
2018-07-26T23:49:50.678Z,25.20
2018-07-26T23:52:32.422Z,25.30
2018-07-26T23:55:13.865Z,25.20
2018-07-26T23:57:55.632Z,25.20
